Time;durP1;ratioP1;P1;durP2;ratioP2;P2;SDS_P1;SDS_P2;PMS_P1;PMS_P2;Temp;Humidity;BMP_temperature;BMP_pressure;BME280_temperature;BME280_humidity;BME280_pressure;Samples;Min_cycle;Max_cycle;Signal;HPM_P1;HPM_P2
2022/04/29 00:00:19;;;;;;;12.82;5.57;;;15.30;43.60;;;;;;5116725;27;20106;-74
2022/04/29 00:02:46;;;;;;;10.20;5.22;;;15.30;43.60;;;;;;5117052;27;20168;-74
2022/04/29 00:05:13;;;;;;;10.73;5.40;;;15.30;43.60;;;;;;5135548;27;20464;-74
2022/04/29 00:07:39;;;;;;;13.07;5.88;;;15.20;43.70;;;;;;5135116;27;20548;-74
2022/04/29 00:10:12;;;;;;;12.15;5.93;;;15.20;44.00;;;;;;5135901;27;20027;-74
2022/04/29 00:12:48;;;;;;;9.10;5.70;;;15.20;44.00;;;;;;5116802;27;20031;-74
2022/04/29 00:15:16;;;;;;;9.10;5.70;;;15.10;44.30;;;;;;5116407;27;20023;-72
2022/04/29 00:17:42;;;;;;;9.25;5.60;;;15.20;44.20;;;;;;5135141;27;20023;-75
2022/04/29 00:20:10;;;;;;;13.50;5.82;;;15.10;44.30;;;;;;5134273;27;20042;-75
2022/04/29 00:22:36;;;;;;;11.82;6.07;;;15.10;44.20;;;;;;5134790;27;20020;-75
2022/04/29 00:25:03;;;;;;;9.05;5.28;;;15.00;44.40;;;;;;5116817;27;20027;-75
2022/04/29 00:27:29;;;;;;;9.57;5.72;;;15.00;44.40;;;;;;5116437;27;20472;-74
2022/04/29 00:29:55;;;;;;;10.07;5.50;;;14.90;44.70;;;;;;5116923;27;20084;-74
2022/04/29 00:32:22;;;;;;;13.95;6.13;;;14.90;45.00;;;;;;5134621;27;20026;-75
2022/04/29 00:34:49;;;;;;;11.38;5.80;;;14.80;45.30;;;;;;5117068;27;20056;-75
2022/04/29 00:37:15;;;;;;;9.15;5.88;;;14.80;45.40;;;;;;5099894;27;20028;-74
2022/04/29 00:39:41;;;;;;;9.95;5.18;;;14.80;45.40;;;;;;5135143;27;20030;-75
2022/04/29 00:42:15;;;;;;;8.73;5.30;;;14.70;45.50;;;;;;5135282;27;20041;-77
2022/04/29 00:44:42;;;;;;;9.38;5.05;;;14.70;45.50;;;;;;5116725;27;20038;-76
2022/04/29 00:47:11;;;;;;;8.00;5.10;;;14.70;45.50;;;;;;5116687;27;20027;-77
2022/04/29 00:49:37;;;;;;;9.18;5.82;;;14.60;45.60;;;;;;5134401;27;20115;-76
2022/04/29 00:52:06;;;;;;;10.95;5.18;;;14.60;45.60;;;;;;5116604;27;20039;-74
2022/04/29 00:54:35;;;;;;;7.82;5.22;;;14.60;45.60;;;;;;5115792;27;20077;-75
2022/04/29 00:57:02;;;;;;;10.27;5.05;;;14.60;45.60;;;;;;5116350;27;20047;-75
2022/04/29 00:59:42;;;;;;;10.68;5.38;;;14.60;45.60;;;;;;5133818;27;20034;-74
2022/04/29 01:02:09;;;;;;;9.32;5.05;;;14.60;45.50;;;;;;5116911;27;20019;-75
2022/04/29 01:04:52;;;;;;;10.82;5.13;;;14.60;45.40;;;;;;5133380;27;20133;-75
2022/04/29 01:07:18;;;;;;;8.88;4.93;;;14.50;45.20;;;;;;5133663;27;20048;-74
2022/04/29 01:09:43;;;;;;;9.77;5.30;;;14.50;45.10;;;;;;5115579;27;20028;-75
2022/04/29 01:12:10;;;;;;;11.85;5.60;;;14.50;45.30;;;;;;5133947;27;20023;-75
2022/04/29 01:14:36;;;;;;;10.63;5.18;;;14.50;45.40;;;;;;5114934;27;20022;-75
2022/04/29 01:17:02;;;;;;;7.18;4.82;;;14.50;45.80;;;;;;5115464;27;20124;-75
2022/04/29 01:19:30;;;;;;;9.35;5.57;;;14.40;46.20;;;;;;5133312;27;20025;-73
2022/04/29 01:22:00;;;;;;;8.82;5.20;;;14.30;46.60;;;;;;5134128;27;20543;-74
2022/04/29 01:24:25;;;;;;;9.82;4.70;;;14.20;46.80;;;;;;5133056;27;20023;-75
2022/04/29 01:26:51;;;;;;;10.02;5.43;;;14.20;46.90;;;;;;5134001;27;20019;-75
2022/04/29 01:29:19;;;;;;;9.68;4.97;;;14.10;47.00;;;;;;5115086;27;20015;-74
2022/04/29 01:31:48;;;;;;;9.23;4.88;;;14.10;47.10;;;;;;5133547;27;20033;-75
2022/04/29 01:34:32;;;;;;;10.25;5.00;;;14.10;47.30;;;;;;5133769;27;20413;-75
2022/04/29 01:36:58;;;;;;;11.98;5.60;;;14.10;47.40;;;;;;5115115;27;20030;-75
2022/04/29 01:39:23;;;;;;;9.30;5.28;;;14.10;47.40;;;;;;5132970;27;20023;-76
2022/04/29 01:41:49;;;;;;;9.95;5.10;;;14.00;47.30;;;;;;5133558;27;20030;-74
2022/04/29 01:44:15;;;;;;;8.57;5.10;;;14.00;48.20;;;;;;5115195;27;20114;-74
2022/04/29 01:46:40;;;;;;;8.05;5.38;;;14.00;47.70;;;;;;5132870;27;20468;-74
2022/04/29 01:49:06;;;;;;;8.02;5.10;;;14.00;47.80;;;;;;5133345;27;20384;-74
2022/04/29 01:51:32;;;;;;;8.55;4.78;;;13.90;47.90;;;;;;5114363;27;20571;-75
2022/04/29 01:53:58;;;;;;;7.53;4.57;;;13.90;47.80;;;;;;5115009;27;20020;-74
2022/04/29 01:56:32;;;;;;;9.15;5.53;;;13.90;47.80;;;;;;5132556;27;20023;-75
2022/04/29 01:59:00;;;;;;;8.00;5.10;;;13.90;47.70;;;;;;5133277;27;20023;-74
2022/04/29 02:01:27;;;;;;;9.57;5.05;;;13.90;47.60;;;;;;5096536;27;20080;-75
2022/04/29 02:03:54;;;;;;;10.60;5.20;;;13.80;47.60;;;;;;5133048;27;20471;-74
2022/04/29 02:06:20;;;;;;;10.57;4.78;;;13.80;47.80;;;;;;5132781;27;20039;-73
2022/04/29 02:08:45;;;;;;;10.18;5.30;;;13.80;47.70;;;;;;5114675;27;20568;-74
2022/04/29 02:11:11;;;;;;;8.68;4.53;;;13.80;47.60;;;;;;5133287;27;20046;-74
2022/04/29 02:13:38;;;;;;;8.05;4.80;;;13.80;47.30;;;;;;5132345;27;20162;-75
2022/04/29 02:16:05;;;;;;;8.48;4.70;;;13.80;47.30;;;;;;5097928;27;20034;-75
2022/04/29 02:18:30;;;;;;;5.88;4.45;;;13.80;47.30;;;;;;5113833;27;20129;-75
2022/04/29 02:20:56;;;;;;;7.18;4.68;;;13.80;47.20;;;;;;5114764;27;20364;-74
2022/04/29 02:23:22;;;;;;;9.65;5.35;;;13.80;47.20;;;;;;5132033;27;20095;-74
2022/04/29 02:25:48;;;;;;;11.13;5.00;;;13.70;47.20;;;;;;5132912;27;20064;-74
2022/04/29 02:28:14;;;;;;;8.00;4.80;;;13.70;47.20;;;;;;5114680;27;20038;-74
2022/04/29 02:30:40;;;;;;;10.60;4.85;;;13.70;47.20;;;;;;5132354;27;20495;-75
2022/04/29 02:33:07;;;;;;;7.88;4.90;;;13.70;47.30;;;;;;5133069;27;20031;-74
2022/04/29 02:35:33;;;;;;;10.25;5.32;;;13.70;47.30;;;;;;5131893;27;20051;-73
2022/04/29 02:37:59;;;;;;;11.13;5.38;;;13.70;47.30;;;;;;5133113;27;20072;-74
2022/04/29 02:40:25;;;;;;;11.10;5.03;;;13.70;47.50;;;;;;5131664;27;20019;-75
2022/04/29 02:42:51;;;;;;;9.57;4.97;;;13.60;47.60;;;;;;5131847;27;20525;-74
2022/04/29 02:45:17;;;;;;;8.57;5.38;;;13.60;47.60;;;;;;5132814;27;20028;-74
2022/04/29 02:47:43;;;;;;;8.25;5.18;;;13.60;47.70;;;;;;5131972;27;20027;-74
2022/04/29 02:50:09;;;;;;;8.48;5.15;;;13.60;47.80;;;;;;5132466;27;20019;-74
2022/04/29 02:52:35;;;;;;;8.88;5.13;;;13.60;47.80;;;;;;5131926;27;20051;-74
2022/04/29 02:55:01;;;;;;;6.82;5.00;;;13.60;47.80;;;;;;5113890;27;20066;-74
2022/04/29 02:57:27;;;;;;;12.00;6.15;;;13.60;47.70;;;;;;5132130;27;20027;-73
2022/04/29 02:59:53;;;;;;;9.02;4.88;;;13.60;47.70;;;;;;5114332;28;20499;-74
2022/04/29 03:02:18;;;;;;;9.45;5.60;;;13.60;47.80;;;;;;5115389;28;20027;-74
2022/04/29 03:04:44;;;;;;;9.00;5.03;;;13.50;47.70;;;;;;5113761;28;20026;-76
2022/04/29 03:07:10;;;;;;;12.48;5.20;;;13.50;47.60;;;;;;5132847;28;20058;-76
2022/04/29 03:09:35;;;;;;;11.88;5.63;;;13.50;47.70;;;;;;5131764;27;20444;-75
2022/04/29 03:12:01;;;;;;;9.15;5.57;;;13.50;47.80;;;;;;5132692;27;20027;-75
2022/04/29 03:14:28;;;;;;;13.32;5.28;;;13.40;47.70;;;;;;5130468;27;20031;-74
2022/04/29 03:16:53;;;;;;;10.57;4.65;;;13.40;47.80;;;;;;5131351;28;20495;-74
2022/04/29 03:19:19;;;;;;;8.45;5.80;;;13.40;47.80;;;;;;5131854;27;20031;-75
2022/04/29 03:21:45;;;;;;;10.77;5.35;;;13.40;47.90;;;;;;5113282;28;20019;-74
2022/04/29 03:24:11;;;;;;;7.93;5.15;;;13.40;47.90;;;;;;5132599;28;20403;-74
2022/04/29 03:26:37;;;;;;;9.50;4.80;;;13.40;47.90;;;;;;5131519;27;20037;-74
2022/04/29 03:29:03;;;;;;;8.45;5.00;;;13.40;48.00;;;;;;5131958;27;20023;-74
2022/04/29 03:31:29;;;;;;;10.07;5.10;;;13.30;48.00;;;;;;5112993;28;20023;-73
2022/04/29 03:33:55;;;;;;;11.60;5.38;;;13.30;48.10;;;;;;5113821;28;20027;-76
2022/04/29 03:36:21;;;;;;;10.75;5.20;;;13.30;48.20;;;;;;5096922;28;20051;-74
2022/04/29 03:38:47;;;;;;;8.25;5.10;;;13.30;48.70;;;;;;5113238;28;20433;-74
2022/04/29 03:41:13;;;;;;;9.93;5.53;;;13.30;49.20;;;;;;5131805;27;20027;-76
2022/04/29 03:43:39;;;;;;;12.68;5.63;;;13.20;49.40;;;;;;5131224;28;20096;-76
2022/04/29 03:46:07;;;;;;;12.18;5.40;;;13.20;49.60;;;;;;5132194;27;20049;-75
2022/04/29 03:51:18;;;;;;;8.90;5.47;;;13.20;50.10;;;;;;5132254;28;20049;-74
2022/04/29 03:53:44;;;;;;;9.43;5.80;;;13.20;50.10;;;;;;5131546;27;20102;-75
2022/04/29 03:56:09;;;;;;;8.30;5.25;;;13.20;50.00;;;;;;5116129;27;20115;-75
2022/04/29 03:58:35;;;;;;;9.27;5.70;;;13.20;50.20;;;;;;5116809;27;20072;-74
2022/04/29 04:01:01;;;;;;;12.75;5.95;;;13.20;50.20;;;;;;5136179;27;20016;-74
2022/04/29 04:03:27;;;;;;;10.60;5.70;;;13.20;50.40;;;;;;5134617;27;20016;-73
2022/04/29 04:08:36;;;;;;;14.52;6.85;;;13.10;50.80;;;;;;5135623;27;20084;-76
2022/04/29 04:11:02;;;;;;;10.15;5.95;;;13.10;51.00;;;;;;5135446;27;20027;-74
2022/04/29 04:13:28;;;;;;;9.15;6.00;;;13.00;51.20;;;;;;5134788;27;20369;-74
2022/04/29 04:15:53;;;;;;;15.07;6.43;;;13.00;51.40;;;;;;5135500;27;20087;-74
2022/04/29 04:18:19;;;;;;;12.02;6.47;;;12.90;51.60;;;;;;5117101;27;20369;-74
2022/04/29 04:20:48;;;;;;;10.63;6.32;;;12.90;51.70;;;;;;5116129;27;20621;-75
2022/04/29 04:23:14;;;;;;;7.38;5.40;;;12.90;51.70;;;;;;5116654;27;20015;-74
2022/04/29 04:25:40;;;;;;;10.00;5.75;;;12.90;51.80;;;;;;5116155;27;20025;-74
2022/04/29 04:28:06;;;;;;;8.82;5.85;;;13.00;51.70;;;;;;5135234;27;20047;-74
2022/04/29 04:30:31;;;;;;;9.57;5.93;;;13.00;51.60;;;;;;5116146;27;20467;-74
2022/04/29 04:32:57;;;;;;;10.43;5.53;;;13.10;51.30;;;;;;5116399;27;20042;-74
2022/04/29 04:35:23;;;;;;;14.90;6.38;;;13.10;51.10;;;;;;5134794;27;20456;-73
2022/04/29 04:37:49;;;;;;;10.10;6.15;;;13.20;50.90;;;;;;5098935;27;20035;-76
2022/04/29 04:40:14;;;;;;;13.23;6.03;;;13.30;50.60;;;;;;5134984;27;20023;-74
2022/04/29 04:42:44;;;;;;;10.60;6.15;;;13.40;50.30;;;;;;5134186;27;20035;-74
2022/04/29 04:45:10;;;;;;;12.25;6.22;;;13.40;50.20;;;;;;5134954;27;20050;-74
2022/04/29 04:47:36;;;;;;;9.93;6.30;;;13.50;50.10;;;;;;5116070;27;20110;-75
2022/04/29 04:50:02;;;;;;;14.45;6.50;;;13.60;50.00;;;;;;5134825;27;20387;-75
2022/04/29 04:52:27;;;;;;;14.75;6.43;;;13.60;49.90;;;;;;5133955;27;20027;-74
2022/04/29 04:54:53;;;;;;;11.38;6.30;;;13.60;49.70;;;;;;5134500;27;20024;-74
2022/04/29 04:57:19;;;;;;;14.90;6.40;;;13.70;49.60;;;;;;5134581;27;20015;-75
2022/04/29 04:59:45;;;;;;;12.98;6.20;;;13.80;49.60;;;;;;5133523;27;20094;-74
2022/04/29 05:02:10;;;;;;;12.73;6.45;;;13.80;49.40;;;;;;5134477;27;20102;-74
2022/04/29 05:04:36;;;;;;;16.75;7.03;;;13.80;49.30;;;;;;5115433;27;20143;-74
2022/04/29 05:07:03;;;;;;;13.95;6.35;;;13.90;49.50;;;;;;5134036;27;20023;-76
2022/04/29 05:09:29;;;;;;;12.77;6.05;;;13.90;49.40;;;;;;5133447;27;20094;-75
2022/04/29 05:11:55;;;;;;;16.13;6.60;;;14.00;49.30;;;;;;5115523;27;20118;-74
2022/04/29 05:14:21;;;;;;;9.00;6.50;;;14.00;49.50;;;;;;5114629;27;20037;-74
2022/04/29 05:16:47;;;;;;;12.65;6.63;;;14.10;49.60;;;;;;5111696;27;20027;-72
2022/04/29 05:19:13;;;;;;;16.60;7.10;;;14.10;49.80;;;;;;5112882;27;20023;-77
2022/04/29 05:21:38;;;;;;;10.15;6.18;;;14.10;50.40;;;;;;5132632;27;20038;-77
2022/04/29 05:24:05;;;;;;;11.02;6.78;;;14.10;49.80;;;;;;5129573;27;20379;-77
2022/04/29 05:26:31;;;;;;;13.52;6.63;;;14.10;49.70;;;;;;5109847;27;20028;-77
2022/04/29 05:28:57;;;;;;;11.98;6.45;;;14.20;49.70;;;;;;5110994;27;20027;-63
2022/04/29 05:31:23;;;;;;;16.08;7.07;;;14.20;49.60;;;;;;5114636;27;20027;-61
2022/04/29 05:33:49;;;;;;;12.82;6.90;;;14.30;49.50;;;;;;5133569;27;20098;-63
2022/04/29 05:36:14;;;;;;;12.07;6.82;;;14.30;49.30;;;;;;5133017;27;20072;-62
2022/04/29 05:44:10;;;;;;;17.17;6.80;;;14.60;48.50;;;;;;5116991;27;20157;-67
2022/04/29 05:46:36;;;;;;;12.05;6.60;;;14.70;48.20;;;;;;5114907;27;20073;-63
2022/04/29 05:49:04;;;;;;;12.45;6.82;;;14.80;48.00;;;;;;5133148;27;20064;-61
2022/04/29 05:51:31;;;;;;;13.63;6.68;;;15.00;47.80;;;;;;5132587;27;20602;-61
2022/04/29 05:53:56;;;;;;;15.73;6.93;;;15.00;47.80;;;;;;5133314;27;20059;-62
2022/04/29 05:56:22;;;;;;;14.45;6.80;;;15.10;47.60;;;;;;5132456;27;20554;-60
2022/04/29 05:58:49;;;;;;;14.70;6.80;;;15.20;47.10;;;;;;5114316;27;20070;-62
2022/04/29 06:01:14;;;;;;;15.35;7.13;;;15.30;46.70;;;;;;5132553;27;20019;-63
2022/04/29 06:03:40;;;;;;;20.30;7.88;;;15.50;46.70;;;;;;5114972;27;20464;-62
2022/04/29 06:06:06;;;;;;;16.33;7.90;;;15.60;46.20;;;;;;5114637;27;20463;-61
2022/04/29 06:08:31;;;;;;;14.88;7.13;;;15.70;45.70;;;;;;5114095;27;20089;-61
2022/04/29 06:10:57;;;;;;;20.27;7.05;;;15.80;45.40;;;;;;5114736;27;20023;-62
2022/04/29 06:13:23;;;;;;;12.45;7.10;;;15.90;44.70;;;;;;5132589;27;20027;-62
2022/04/29 06:15:49;;;;;;;16.20;7.25;;;16.00;44.20;;;;;;5133117;27;20099;-66
2022/04/29 06:18:15;;;;;;;13.45;7.60;;;16.10;44.00;;;;;;5131501;27;20384;-63
2022/04/29 06:20:40;;;;;;;17.38;7.07;;;16.20;43.70;;;;;;5114239;27;20122;-62
2022/04/29 06:23:06;;;;;;;11.07;6.43;;;16.30;43.60;;;;;;5109862;27;20300;-63
2022/04/29 06:25:31;;;;;;;12.27;6.53;;;16.40;43.20;;;;;;5129843;27;20363;-62
2022/04/29 06:27:57;;;;;;;11.40;7.45;;;16.50;42.80;;;;;;5133069;27;20027;-62
2022/04/29 06:30:23;;;;;;;20.95;7.00;;;16.60;42.60;;;;;;5132150;27;20072;-62
2022/04/29 06:32:53;;;;;;;17.42;7.40;;;16.50;43.20;;;;;;5131344;27;20080;-61
2022/04/29 06:35:19;;;;;;;13.50;6.88;;;16.50;43.20;;;;;;5134114;27;20023;-61
2022/04/29 06:37:44;;;;;;;15.70;8.07;;;16.70;43.10;;;;;;5115486;27;20394;-62
2022/04/29 06:40:12;;;;;;;12.52;6.82;;;16.80;43.60;;;;;;5126715;27;20586;-66
2022/04/29 06:42:47;;;;;;;15.57;8.32;;;16.90;43.60;;;;;;5098816;28;20052;-62
2022/04/29 06:45:16;;;;;;;18.90;7.35;;;16.90;43.70;;;;;;5090269;28;20020;-67
2022/04/29 06:47:42;;;;;;;16.27;8.20;;;17.10;43.60;;;;;;5089856;28;20430;-60
2022/04/29 06:50:10;;;;;;;15.95;7.13;;;17.20;43.70;;;;;;5091288;28;20024;-62
2022/04/29 06:52:36;;;;;;;13.23;7.15;;;17.30;43.50;;;;;;5091245;28;20024;-61
2022/04/29 06:55:02;;;;;;;18.23;7.75;;;17.40;43.10;;;;;;5091941;28;20017;-62
2022/04/29 06:57:29;;;;;;;15.35;6.53;;;17.50;42.50;;;;;;5083981;28;20024;-64
2022/04/29 06:59:54;;;;;;;12.55;7.10;;;17.60;42.10;;;;;;5085000;28;20023;-62
2022/04/29 07:02:20;;;;;;;15.60;7.50;;;17.70;41.60;;;;;;5089549;28;20024;-66
2022/04/29 07:04:47;;;;;;;19.85;7.28;;;17.80;40.80;;;;;;5085470;28;20099;-66
2022/04/29 07:07:16;;;;;;;14.80;7.90;;;17.80;39.90;;;;;;5085931;28;20024;-67
2022/04/29 07:09:43;;;;;;;16.25;7.45;;;19.00;40.40;;;;;;5084823;28;20095;-66
2022/04/29 07:12:09;;;;;;;12.45;7.45;;;22.40;37.70;;;;;;5088390;28;20099;-63
2022/04/29 07:14:35;;;;;;;12.73;7.32;;;25.80;30.90;;;;;;5090324;28;20507;-63
2022/04/29 07:17:01;;;;;;;16.48;6.72;;;28.10;28.70;;;;;;5091190;28;20027;-63
2022/04/29 07:19:27;;;;;;;11.95;7.13;;;30.50;27.50;;;;;;5090101;28;20020;-63
2022/04/29 07:21:52;;;;;;;12.68;7.53;;;32.80;25.40;;;;;;5090674;28;20017;-64
2022/04/29 07:24:18;;;;;;;13.25;7.25;;;34.40;24.30;;;;;;5090367;28;20103;-63
2022/04/29 07:26:44;;;;;;;8.63;6.68;;;35.40;24.20;;;;;;5090676;28;20082;-63
2022/04/29 07:29:10;;;;;;;9.68;6.55;;;36.70;23.10;;;;;;5086598;28;20024;-64
2022/04/29 07:31:36;;;;;;;16.30;7.18;;;38.00;22.50;;;;;;5088026;28;20476;-63
2022/04/29 07:34:02;;;;;;;16.45;6.70;;;39.00;21.80;;;;;;5087007;28;20073;-63
2022/04/29 07:41:58;;;;;;;10.73;6.15;;;40.90;20.50;;;;;;5094293;27;20039;-63
2022/04/29 07:44:24;;;;;;;14.60;7.00;;;42.00;20.20;;;;;;5095307;27;20164;-63
2022/04/29 07:46:51;;;;;;;12.18;6.88;;;42.60;19.80;;;;;;5135682;27;20031;-64
2022/04/29 07:49:18;;;;;;;9.90;7.30;;;42.70;19.50;;;;;;5135798;27;20023;-67
2022/04/29 07:58:13;;;;;;;12.20;6.88;;;43.80;19.20;;;;;;5130748;27;20034;-68
2022/04/29 08:00:39;;;;;;;11.48;7.40;;;44.50;18.90;;;;;;5111500;27;20495;-65
2022/04/29 08:03:05;;;;;;;12.00;6.80;;;44.50;18.60;;;;;;5111148;27;20035;-69
2022/04/29 08:05:32;;;;;;;15.30;7.90;;;44.70;18.70;;;;;;5129016;27;20027;-66
2022/04/29 08:08:01;;;;;;;12.10;6.65;;;45.50;18.40;;;;;;5110005;27;20023;-69
2022/04/29 08:10:32;;;;;;;10.88;6.70;;;44.90;18.10;;;;;;5110077;27;20046;-68
2022/04/29 08:12:59;;;;;;;15.55;7.18;;;45.50;18.30;;;;;;5127788;27;20128;-65
2022/04/29 08:15:32;;;;;;;12.35;7.35;;;46.40;18.20;;;;;;5107811;27;20574;-69
2022/04/29 08:17:58;;;;;;;11.18;6.72;;;46.80;18.00;;;;;;5129537;27;20031;-67
2022/04/29 08:20:25;;;;;;;11.98;6.30;;;47.00;17.70;;;;;;5111333;27;20023;-63
2022/04/29 08:22:51;;;;;;;8.27;6.15;;;46.80;17.70;;;;;;5091237;27;20162;-64
2022/04/29 08:25:20;;;;;;;19.08;7.10;;;47.00;17.90;;;;;;5127022;27;20408;-69
2022/04/29 08:27:47;;;;;;;18.58;7.13;;;47.70;17.90;;;;;;5112758;27;20027;-69
2022/04/29 08:30:14;;;;;;;12.13;5.78;;;48.00;17.70;;;;;;5114032;27;20092;-67
2022/04/29 08:32:43;;;;;;;11.25;6.30;;;47.50;17.40;;;;;;5113326;27;20471;-67
2022/04/29 08:35:10;;;;;;;15.38;6.95;;;47.30;18.10;;;;;;5114169;27;20062;-66
2022/04/29 08:37:43;;;;;;;13.00;5.80;;;47.60;18.00;;;;;;5132579;27;20115;-63
2022/04/29 08:40:11;;;;;;;10.45;5.82;;;47.10;17.60;;;;;;5133617;27;20476;-65
2022/04/29 08:42:38;;;;;;;8.15;5.43;;;47.00;17.80;;;;;;5132750;27;20047;-66
2022/04/29 08:45:15;;;;;;;12.60;6.40;;;46.60;17.80;;;;;;5098419;27;20099;-66
2022/04/29 08:47:42;;;;;;;17.23;6.35;;;45.00;17.60;;;;;;5113643;27;20024;-65
2022/04/29 08:50:15;;;;;;;9.38;6.53;;;44.60;18.00;;;;;;5099075;27;20235;-63
2022/04/29 08:52:41;;;;;;;15.70;7.05;;;44.70;18.00;;;;;;5134024;27;20024;-63
2022/04/29 09:00:39;;;;;;;12.60;5.80;;;43.90;18.20;;;;;;5133323;27;20432;-66
2022/04/29 09:03:17;;;;;;;15.50;6.43;;;43.00;17.90;;;;;;5113653;27;20019;-64
2022/04/29 09:05:44;;;;;;;11.25;5.80;;;39.60;18.20;;;;;;5132761;27;20027;-63
2022/04/29 09:08:15;;;;;;;13.95;5.72;;;37.00;19.20;;;;;;5114663;27;20027;-64
2022/04/29 09:10:51;;;;;;;21.75;5.93;;;34.00;20.50;;;;;;5132237;27;20027;-64
2022/04/29 09:13:28;;;;;;;10.85;6.00;;;32.00;21.20;;;;;;5131822;27;20035;-68
2022/04/29 09:16:00;;;;;;;7.40;5.65;;;30.50;22.00;;;;;;5134250;27;20023;-64
2022/04/29 09:18:50;;;;;;;9.27;5.18;;;29.40;22.80;;;;;;5133424;27;20023;-64
2022/04/29 09:21:27;;;;;;;13.40;5.35;;;28.40;23.30;;;;;;5116003;27;20023;-73
2022/04/29 09:23:59;;;;;;;10.65;4.60;;;27.60;23.90;;;;;;5128928;27;20031;-66
2022/04/29 09:26:36;;;;;;;8.75;4.95;;;27.00;24.00;;;;;;5114377;27;20023;-64
2022/04/29 09:29:11;;;;;;;11.27;5.25;;;26.30;24.50;;;;;;5133323;27;20049;-62
2022/04/29 09:32:11;;;;;;;13.52;6.32;;;25.60;25.30;;;;;;5131521;27;20015;-61
2022/04/29 09:34:50;;;;;;;10.05;5.05;;;25.00;25.80;;;;;;5114943;27;20140;-61
2022/04/29 09:39:26;;;;;;;7.53;5.35;;;24.40;26.20;;;;;;5115567;27;20095;-68
2022/04/29 09:40:38;;;;;;;9.15;4.97;;;24.20;26.60;;;;;;5116983;27;20418;-64
2022/04/29 09:43:03;;;;;;;17.15;8.27;;;24.10;26.70;;;;;;5133009;27;20395;-63
2022/04/29 09:45:29;;;;;;;13.35;7.50;;;24.10;26.80;;;;;;5097125;27;20023;-63
2022/04/29 09:48:00;;;;;;;11.63;5.15;;;23.50;27.40;;;;;;5114658;27;20155;-65
2022/04/29 09:50:46;;;;;;;10.23;5.20;;;23.30;27.80;;;;;;5113965;27;20125;-65
2022/04/29 09:53:26;;;;;;;12.70;6.00;;;23.20;27.90;;;;;;5132803;27;20019;-64
2022/04/29 09:56:11;;;;;;;11.52;6.05;;;23.10;28.10;;;;;;5133050;27;20020;-65
2022/04/29 09:58:37;;;;;;;17.15;6.35;;;23.10;28.10;;;;;;5131820;27;20068;-64
2022/04/29 10:01:04;;;;;;;24.02;15.25;;;22.80;28.30;;;;;;5132688;27;20487;-63
2022/04/29 10:03:31;;;;;;;12.85;6.70;;;22.80;28.50;;;;;;5113687;27;20047;-61
2022/04/29 10:06:01;;;;;;;15.85;6.57;;;22.90;28.50;;;;;;5097595;27;20023;-63
2022/04/29 10:08:29;;;;;;;17.77;10.68;;;23.10;28.30;;;;;;5113858;27;20383;-64
2022/04/29 10:10:56;;;;;;;16.65;6.68;;;23.20;28.20;;;;;;5132808;27;20483;-63
2022/04/29 10:13:25;;;;;;;9.52;5.00;;;22.90;28.10;;;;;;5132139;27;20110;-69
2022/04/29 10:15:53;;;;;;;9.70;4.82;;;23.00;28.10;;;;;;5114114;27;20028;-62
2022/04/29 10:21:17;;;;;;;10.02;6.43;;;23.00;28.10;;;;;;5133103;27;20038;-62
2022/04/29 10:23:50;;;;;;;11.55;5.45;;;22.90;28.20;;;;;;5113550;27;20540;-63
2022/04/29 10:26:17;;;;;;;10.00;5.90;;;23.00;28.30;;;;;;5114031;27;20063;-62
2022/04/29 10:28:44;;;;;;;19.83;14.52;;;23.20;28.50;;;;;;5113098;27;20110;-65
2022/04/29 10:31:16;;;;;;;15.93;7.03;;;23.00;28.60;;;;;;5113885;27;20516;-63
2022/04/29 10:33:42;;;;;;;9.90;6.47;;;22.90;28.80;;;;;;5131755;27;20452;-60
2022/04/29 10:36:09;;;;;;;9.85;5.95;;;23.20;28.50;;;;;;5113835;27;20034;-61
2022/04/29 10:38:40;;;;;;;11.27;6.47;;;23.40;28.10;;;;;;5113124;27;20499;-60
2022/04/29 10:41:25;;;;;;;12.73;5.82;;;23.70;28.10;;;;;;5130186;27;20497;-64
2022/04/29 10:43:50;;;;;;;13.52;6.07;;;23.80;28.00;;;;;;5131570;27;20139;-60
2022/04/29 10:46:22;;;;;;;9.90;5.72;;;23.50;28.00;;;;;;5132206;27;20023;-61
2022/04/29 10:48:52;;;;;;;9.55;6.55;;;23.40;28.20;;;;;;5112748;27;20506;-61
2022/04/29 10:51:27;;;;;;;14.93;7.80;;;23.40;28.40;;;;;;5113831;27;20049;-60
2022/04/29 10:53:57;;;;;;;16.55;7.18;;;23.40;28.50;;;;;;5132291;27;20075;-60
2022/04/29 10:56:30;;;;;;;14.77;9.75;;;23.20;28.40;;;;;;5113455;27;20031;-64
2022/04/29 10:59:10;;;;;;;11.43;6.78;;;23.10;28.40;;;;;;5113538;28;20038;-60
2022/04/29 11:01:38;;;;;;;12.38;6.18;;;23.00;28.50;;;;;;5113071;28;20098;-61
2022/04/29 11:04:07;;;;;;;11.00;6.22;;;23.10;28.70;;;;;;5115957;27;20054;-60
2022/04/29 11:06:46;;;;;;;10.82;6.18;;;23.10;28.60;;;;;;5119772;27;20019;-61
2022/04/29 11:09:31;;;;;;;9.88;6.18;;;23.10;28.50;;;;;;5120479;27;20070;-60
2022/04/29 11:12:00;;;;;;;12.05;7.45;;;23.10;28.60;;;;;;5139049;27;20023;-61
2022/04/29 11:14:26;;;;;;;13.27;6.35;;;22.90;28.70;;;;;;5138183;27;20066;-66
2022/04/29 11:16:56;;;;;;;11.73;7.20;;;22.90;28.50;;;;;;5138424;27;20023;-64
2022/04/29 11:19:35;;;;;;;7.75;6.13;;;22.90;28.50;;;;;;5120121;27;20368;-60
2022/04/29 11:24:49;;;;;;;13.60;7.28;;;22.90;28.60;;;;;;5138161;27;20122;-61
2022/04/29 11:27:30;;;;;;;11.65;6.32;;;22.90;28.80;;;;;;5120021;27;20118;-62
2022/04/29 11:30:01;;;;;;;9.82;6.68;;;23.10;28.10;;;;;;5138901;27;20020;-61
2022/04/29 11:32:28;;;;;;;13.90;8.77;;;23.40;28.10;;;;;;5120136;27;20045;-65
2022/04/29 11:35:00;;;;;;;18.08;7.78;;;23.60;27.90;;;;;;5119920;27;20114;-60
2022/04/29 11:37:28;;;;;;;15.25;6.15;;;23.70;27.60;;;;;;5119830;27;20030;-64
2022/04/29 11:39:55;;;;;;;13.82;7.63;;;23.60;27.60;;;;;;5138571;27;20023;-61
2022/04/29 11:42:22;;;;;;;17.30;8.65;;;23.60;27.70;;;;;;5119647;27;20043;-60
2022/04/29 11:44:51;;;;;;;17.20;6.15;;;23.50;27.90;;;;;;5102503;27;20334;-60
2022/04/29 11:47:23;;;;;;;14.00;6.90;;;23.40;28.10;;;;;;5138461;27;20015;-60
2022/04/29 11:49:49;;;;;;;11.68;7.60;;;23.40;28.30;;;;;;5119422;27;20430;-61
2022/04/29 11:52:30;;;;;;;14.90;10.68;;;23.40;28.20;;;;;;5104272;27;20120;-60
2022/04/29 11:55:14;;;;;;;10.02;6.50;;;23.50;28.10;;;;;;5138378;27;20034;-61
2022/04/29 11:57:47;;;;;;;14.17;5.83;;;23.20;28.10;;;;;;5119311;27;20024;-61
2022/04/29 12:00:28;;;;;;;12.38;6.53;;;23.20;28.10;;;;;;5119938;27;20296;-61
2022/04/29 12:02:55;;;;;;;9.50;5.13;;;23.20;27.90;;;;;;5102307;27;20034;-60
2022/04/29 12:05:23;;;;;;;8.20;5.40;;;23.10;27.90;;;;;;5138173;27;20068;-59
2022/04/29 12:07:50;;;;;;;13.43;7.32;;;23.10;27.90;;;;;;5137749;27;20019;-60
2022/04/29 12:10:23;;;;;;;9.82;7.00;;;23.20;28.00;;;;;;5119521;27;20120;-59
2022/04/29 12:12:53;;;;;;;22.60;11.77;;;23.50;27.90;;;;;;5119065;27;20166;-62
2022/04/29 12:15:20;;;;;;;12.38;8.13;;;23.80;27.50;;;;;;5136546;27;20034;-61
2022/04/29 12:17:49;;;;;;;15.98;7.13;;;23.70;27.60;;;;;;5134229;27;20031;-62
2022/04/29 12:20:17;;;;;;;8.10;4.88;;;23.80;27.60;;;;;;5135218;27;20098;-61
2022/04/29 12:22:47;;;;;;;9.68;5.53;;;23.90;27.40;;;;;;5133905;27;20020;-60
2022/04/29 12:25:29;;;;;;;10.40;6.40;;;23.90;27.40;;;;;;5116463;27;20024;-60
2022/04/29 12:28:13;;;;;;;16.67;7.72;;;23.80;27.50;;;;;;5134153;27;20114;-59
2022/04/29 12:36:10;;;;;;;9.73;5.50;;;23.90;27.40;;;;;;5135070;27;20041;-61
2022/04/29 12:38:38;;;;;;;7.60;5.35;;;24.10;27.50;;;;;;5115254;27;20535;-61
2022/04/29 12:41:34;;;;;;;10.93;7.03;;;24.10;27.40;;;;;;5115491;27;20015;-61
2022/04/29 12:44:11;;;;;;;16.38;9.05;;;24.10;27.50;;;;;;5080313;28;20040;-61
2022/04/29 12:46:37;;;;;;;16.88;10.00;;;24.10;27.50;;;;;;5092688;28;20024;-61
2022/04/29 12:49:03;;;;;;;13.68;7.38;;;23.80;27.60;;;;;;5091924;28;20069;-61
2022/04/29 12:51:34;;;;;;;16.73;11.82;;;23.60;27.70;;;;;;5091891;28;20345;-60
2022/04/29 12:54:05;;;;;;;14.38;6.72;;;23.60;27.50;;;;;;5091834;28;20035;-61
2022/04/29 12:56:36;;;;;;;11.23;5.68;;;23.60;27.70;;;;;;5091621;28;20020;-60
2022/04/29 12:59:04;;;;;;;12.32;8.48;;;23.70;27.30;;;;;;5091184;28;20020;-62
2022/04/29 13:01:40;;;;;;;12.55;5.07;;;23.80;27.00;;;;;;5091580;28;20020;-63
2022/04/29 13:04:06;;;;;;;8.57;6.00;;;23.90;27.10;;;;;;5091564;28;20028;-62
2022/04/29 13:06:36;;;;;;;10.43;5.68;;;24.20;27.10;;;;;;5091809;28;20080;-60
2022/04/29 13:09:03;;;;;;;8.65;6.07;;;24.50;26.70;;;;;;5091485;28;20024;-60
2022/04/29 13:11:30;;;;;;;11.65;5.55;;;24.20;26.90;;;;;;5091570;28;20027;-61
2022/04/29 13:13:57;;;;;;;11.23;6.20;;;24.20;27.10;;;;;;5092059;28;20032;-61
2022/04/29 13:16:23;;;;;;;9.35;5.07;;;24.20;26.90;;;;;;5091068;28;20077;-60
2022/04/29 13:18:50;;;;;;;21.30;13.98;;;23.80;27.00;;;;;;5090775;28;20055;-60
2022/04/29 13:21:16;;;;;;;7.50;5.30;;;23.70;26.90;;;;;;5092696;28;20101;-59
2022/04/29 13:23:45;;;;;;;11.48;5.50;;;23.50;27.00;;;;;;5092079;28;20026;-62
2022/04/29 13:26:13;;;;;;;8.63;5.35;;;23.40;27.20;;;;;;5091261;28;20453;-60